Time;durP1;ratioP1;P1;durP2;ratioP2;P2;SDS_P1;SDS_P2;PMS_P1;PMS_P2;Temp;Humidity;BMP_temperature;BMP_pressure;BME280_temperature;BME280_humidity;BME280_pressure;Samples;Min_cycle;Max_cycle;Signal;HPM_P1;HPM_P2
2022/07/26 00:03:37;;;;;;;12.05;10.82;;;29.50;46.00;;;;;;4640870;56;21064;-35
2022/07/26 00:08:39;;;;;;;11.30;10.10;;;29.50;46.20;;;;;;4868578;56;21498;-28
2022/07/26 00:13:40;;;;;;;12.10;10.55;;;29.50;45.90;;;;;;4739717;56;21072;-35
2022/07/26 00:18:41;;;;;;;11.02;9.93;;;29.50;46.40;;;;;;4616007;58;21056;-30
2022/07/26 00:23:42;;;;;;;11.45;10.32;;;29.50;46.80;;;;;;4768921;56;21041;-33
2022/07/26 00:28:43;;;;;;;11.05;9.90;;;29.50;46.30;;;;;;4671720;56;21012;-34
2022/07/26 00:33:44;;;;;;;11.65;10.18;;;29.50;46.20;;;;;;4750856;56;21116;-33
2022/07/26 00:38:45;;;;;;;11.10;10.00;;;29.50;46.00;;;;;;4707521;56;21035;-29
2022/07/26 00:43:59;;;;;;;10.93;9.82;;;29.50;46.40;;;;;;4827037;56;21087;-28
2022/07/26 00:48:59;;;;;;;11.10;10.00;;;29.50;46.90;;;;;;4806650;56;21562;-30
2022/07/26 00:54:01;;;;;;;10.88;9.77;;;29.50;46.40;;;;;;4638036;56;21029;-30
2022/07/26 00:59:02;;;;;;;10.35;9.35;;;29.50;46.40;;;;;;4697833;56;21005;-31
2022/07/26 01:04:02;;;;;;;11.02;10.00;;;29.50;46.60;;;;;;4863012;56;21015;-32
2022/07/26 01:09:04;;;;;;;10.70;9.70;;;29.50;46.40;;;;;;4693223;56;21887;-32
2022/07/26 01:14:05;;;;;;;10.77;9.68;;;29.50;46.70;;;;;;4667461;56;21546;-31
2022/07/26 01:19:05;;;;;;;10.82;9.75;;;29.50;48.10;;;;;;4995321;56;21124;-30
2022/07/26 01:24:06;;;;;;;10.10;9.13;;;29.50;47.30;;;;;;4658315;56;21152;-29
2022/07/26 01:29:07;;;;;;;10.32;9.32;;;29.50;46.70;;;;;;4779039;56;21100;-29
2022/07/26 01:34:08;;;;;;;10.93;9.80;;;29.50;47.00;;;;;;5074303;56;21171;-29
2022/07/26 01:39:09;;;;;;;9.65;8.75;;;29.40;46.50;;;;;;4615935;60;21096;-28
2022/07/26 01:44:10;;;;;;;10.07;9.13;;;29.50;46.90;;;;;;4616240;60;21056;-30
2022/07/26 01:49:11;;;;;;;10.05;9.05;;;29.40;46.90;;;;;;4898037;56;21048;-31
2022/07/26 01:54:12;;;;;;;9.60;8.65;;;29.40;47.40;;;;;;4665132;56;21531;-33
2022/07/26 01:59:13;;;;;;;9.68;8.68;;;29.50;46.70;;;;;;4831187;56;21562;-30
2022/07/26 02:09:33;;;;;;;9.68;8.77;;;29.40;46.80;;;;;;4616050;56;21052;-31
2022/07/26 02:14:34;;;;;;;9.13;8.23;;;29.40;47.30;;;;;;4646962;56;21128;-34
2022/07/26 02:19:34;;;;;;;9.38;8.57;;;29.40;47.40;;;;;;4934779;56;21535;-31
2022/07/26 02:24:36;;;;;;;9.70;8.70;;;29.50;47.00;;;;;;4720754;56;21079;-31
2022/07/26 02:29:36;;;;;;;9.50;8.60;;;29.50;47.30;;;;;;4749564;56;21502;-34
2022/07/26 02:34:37;;;;;;;9.13;8.25;;;29.50;47.10;;;;;;4866082;56;21004;-36
2022/07/26 02:39:38;;;;;;;8.98;8.18;;;29.50;47.00;;;;;;4654795;56;21044;-31
2022/07/26 02:44:40;;;;;;;8.95;8.15;;;29.50;47.10;;;;;;4672887;56;21093;-33
2022/07/26 02:49:41;;;;;;;9.35;8.45;;;29.40;47.10;;;;;;4666571;56;21534;-31
2022/07/26 02:54:42;;;;;;;9.30;8.27;;;29.50;47.30;;;;;;4650029;56;21113;-34
2022/07/26 02:59:42;;;;;;;8.85;8.05;;;29.40;46.90;;;;;;4615762;60;21096;-32
2022/07/26 03:04:43;;;;;;;8.70;7.80;;;29.40;46.80;;;;;;4616277;60;21109;-33
2022/07/26 03:09:44;;;;;;;8.90;8.00;;;29.40;47.00;;;;;;4658039;56;21100;-29
2022/07/26 03:14:45;;;;;;;8.48;7.68;;;29.40;46.70;;;;;;4655557;56;21594;-29
2022/07/26 03:19:45;;;;;;;9.02;8.13;;;29.40;47.20;;;;;;4779109;56;21542;-30
2022/07/26 03:24:46;;;;;;;8.93;8.02;;;29.40;46.70;;;;;;4643049;56;21101;-28
2022/07/26 03:29:47;;;;;;;8.15;7.40;;;29.40;46.80;;;;;;4717978;56;21093;-32
2022/07/26 03:34:48;;;;;;;8.00;7.20;;;29.40;46.90;;;;;;4615865;60;20996;-30
2022/07/26 03:39:49;;;;;;;9.23;8.13;;;29.40;46.80;;;;;;4642028;56;21502;-31
2022/07/26 03:44:49;;;;;;;8.70;7.90;;;29.40;46.70;;;;;;4930465;56;21016;-32
2022/07/26 03:49:50;;;;;;;8.35;7.60;;;29.40;46.30;;;;;;4637391;56;21530;-30
2022/07/26 03:54:51;;;;;;;8.23;7.40;;;29.40;46.40;;;;;;4676401;56;21175;-32
2022/07/26 03:59:52;;;;;;;7.75;7.05;;;29.30;46.50;;;;;;4786897;56;21088;-33
2022/07/26 04:04:52;;;;;;;8.48;7.60;;;29.30;46.10;;;;;;4754912;56;21087;-30
2022/07/26 04:09:53;;;;;;;8.13;7.43;;;29.30;46.30;;;;;;4708355;56;21016;-31
2022/07/26 04:14:54;;;;;;;8.25;7.45;;;29.30;46.30;;;;;;4624861;56;21127;-33
2022/07/26 04:19:55;;;;;;;7.93;7.22;;;29.30;46.30;;;;;;4659677;56;21126;-29
2022/07/26 04:24:56;;;;;;;7.75;7.00;;;29.30;46.90;;;;;;4702991;56;21075;-30
2022/07/26 04:29:57;;;;;;;8.18;7.32;;;29.30;46.00;;;;;;4617009;56;21092;-29
2022/07/26 04:34:58;;;;;;;9.40;7.45;;;29.30;46.40;;;;;;4616495;56;20989;-29
2022/07/26 04:39:59;;;;;;;8.30;7.50;;;29.30;46.20;;;;;;4859694;56;21028;-29
2022/07/26 04:44:59;;;;;;;8.00;7.20;;;29.30;46.20;;;;;;4666943;56;21514;-29
2022/07/26 04:50:00;;;;;;;8.75;7.30;;;29.30;46.90;;;;;;4646722;56;21089;-30
2022/07/26 04:55:01;;;;;;;8.20;7.40;;;29.30;46.00;;;;;;4686074;56;21507;-31
2022/07/26 05:00:05;;;;;;;8.65;7.85;;;29.30;46.10;;;;;;4616155;60;21020;-30
2022/07/26 05:05:08;;;;;;;8.10;7.30;;;29.30;46.20;;;;;;4675855;56;21029;-31
2022/07/26 05:10:09;;;;;;;8.15;7.07;;;29.20;45.90;;;;;;4616511;60;21063;-30
2022/07/26 05:15:10;;;;;;;7.40;6.70;;;29.20;45.70;;;;;;4677954;56;21039;-30
2022/07/26 05:20:13;;;;;;;7.18;6.47;;;29.30;45.70;;;;;;4650324;56;21097;-29
2022/07/26 05:25:14;;;;;;;8.27;7.22;;;29.20;45.60;;;;;;4890032;56;21052;-29
2022/07/26 05:30:15;;;;;;;8.07;7.22;;;29.20;45.60;;;;;;4655269;56;21003;-29
2022/07/26 05:35:16;;;;;;;8.30;7.25;;;29.20;45.80;;;;;;4616272;56;21503;-31
2022/07/26 05:40:17;;;;;;;7.55;6.72;;;29.20;45.90;;;;;;4691050;56;21101;-28
2022/07/26 05:45:17;;;;;;;8.05;7.25;;;29.20;45.60;;;;;;4774087;56;21535;-31
2022/07/26 05:50:19;;;;;;;8.70;6.90;;;29.20;45.70;;;;;;4616224;56;21021;-30
2022/07/26 05:55:20;;;;;;;7.78;7.00;;;29.20;45.60;;;;;;4836320;56;21021;-28
2022/07/26 06:00:20;;;;;;;7.90;7.00;;;29.20;45.80;;;;;;4679486;56;21088;-29
2022/07/26 06:05:21;;;;;;;7.80;6.95;;;29.20;45.70;;;;;;4719820;56;20992;-29
2022/07/26 06:10:22;;;;;;;8.00;7.20;;;29.20;45.80;;;;;;4694783;56;21024;-28
2022/07/26 06:15:23;;;;;;;8.52;7.45;;;29.20;45.70;;;;;;4953385;56;21088;-28
2022/07/26 06:20:24;;;;;;;8.15;7.20;;;29.20;45.90;;;;;;4615784;60;21100;-29
2022/07/26 06:25:25;;;;;;;9.57;7.15;;;29.20;46.20;;;;;;4667415;56;21068;-29
2022/07/26 06:30:26;;;;;;;8.02;7.22;;;29.20;45.50;;;;;;5024730;56;21025;-29
2022/07/26 06:35:29;;;;;;;8.65;7.15;;;29.20;45.70;;;;;;4616509;60;21490;-29
2022/07/26 06:40:32;;;;;;;8.85;7.53;;;29.20;45.80;;;;;;4773614;56;21515;-31
2022/07/26 06:45:32;;;;;;;8.40;7.55;;;29.20;45.60;;;;;;5074069;56;21471;-30
2022/07/26 06:50:33;;;;;;;8.25;7.45;;;29.20;45.70;;;;;;4662601;56;21174;-29
2022/07/26 06:55:34;;;;;;;8.95;8.05;;;29.20;45.70;;;;;;5017987;56;21075;-31
2022/07/26 07:00:35;;;;;;;8.75;7.70;;;29.20;45.60;;;;;;4933721;56;21106;-32
2022/07/26 07:05:36;;;;;;;24.48;19.85;;;29.20;45.70;;;;;;4614686;60;21526;-27
2022/07/26 07:10:36;;;;;;;33.22;26.60;;;29.20;42.30;;;;;;4616000;60;21140;-30
2022/07/26 07:15:37;;;;;;;30.23;23.65;;;29.20;41.40;;;;;;4656241;56;21079;-28
2022/07/26 07:20:39;;;;;;;35.08;23.87;;;29.20;40.90;;;;;;4618340;56;21072;-27
2022/07/26 07:25:40;;;;;;;30.35;22.70;;;29.20;40.80;;;;;;4615395;60;21116;-32
2022/07/26 07:30:41;;;;;;;34.13;22.58;;;29.20;40.60;;;;;;4696241;56;21029;-31
2022/07/26 07:35:41;;;;;;;29.70;23.50;;;29.20;40.50;;;;;;4649123;56;21013;-31
2022/07/26 07:40:42;;;;;;;30.88;23.00;;;29.20;40.60;;;;;;4618137;56;21032;-29
2022/07/26 07:45:43;;;;;;;34.30;23.70;;;29.20;41.30;;;;;;4616105;60;21488;-28
2022/07/26 07:50:44;;;;;;;33.05;25.37;;;29.30;40.80;;;;;;4655085;56;20984;-32
2022/07/26 07:55:45;;;;;;;34.88;25.88;;;29.30;41.10;;;;;;4693373;56;21024;-31
2022/07/26 08:00:46;;;;;;;31.15;25.92;;;29.30;41.40;;;;;;4672137;56;21518;-28
2022/07/26 08:05:47;;;;;;;36.65;26.27;;;29.40;41.30;;;;;;4688582;56;21604;-26
2022/07/26 08:10:49;;;;;;;32.30;24.77;;;29.50;42.20;;;;;;4683689;56;21509;-27
2022/07/26 08:15:51;;;;;;;29.20;23.92;;;29.50;42.60;;;;;;4698018;56;21087;-28
2022/07/26 08:20:53;;;;;;;29.73;23.58;;;29.50;43.00;;;;;;4757418;56;21100;-27
2022/07/26 08:25:53;;;;;;;31.85;24.35;;;29.60;43.40;;;;;;4629868;56;21032;-29
2022/07/26 08:30:54;;;;;;;28.20;22.40;;;29.60;43.30;;;;;;4626188;56;21140;-28
2022/07/26 08:35:55;;;;;;;26.52;21.60;;;29.60;43.40;;;;;;4615228;60;21098;-35
2022/07/26 08:40:57;;;;;;;29.58;21.55;;;29.60;43.40;;;;;;4663083;56;21081;-32
2022/07/26 08:46:02;;;;;;;27.90;21.55;;;29.60;43.50;;;;;;4699618;56;21012;-32
2022/07/26 08:51:07;;;;;;;24.33;20.10;;;29.60;43.60;;;;;;4615943;60;21008;-28
2022/07/26 08:56:08;;;;;;;25.92;21.02;;;29.60;43.60;;;;;;4616154;60;21020;-29
2022/07/26 09:01:11;;;;;;;22.45;20.02;;;29.60;43.60;;;;;;4624691;56;21538;-28
2022/07/26 09:06:17;;;;;;;24.02;20.67;;;29.70;43.70;;;;;;4615970;60;21021;-29
2022/07/26 09:11:27;;;;;;;33.63;24.90;;;29.60;43.40;;;;;;4634397;56;21016;-29
2022/07/26 09:16:29;;;;;;;40.72;29.48;;;29.70;42.50;;;;;;4689827;56;21482;-32
2022/07/26 09:21:32;;;;;;;45.72;32.33;;;29.80;42.10;;;;;;4670370;56;21049;-32
2022/07/26 09:26:33;;;;;;;39.88;29.27;;;29.90;41.50;;;;;;4678592;56;21543;-26
2022/07/26 09:31:35;;;;;;;44.88;30.85;;;29.90;41.40;;;;;;4659464;56;21112;-27
2022/07/26 09:36:53;;;;;;;43.50;30.23;;;30.00;40.90;;;;;;4754107;56;21073;-29
2022/07/26 09:41:54;;;;;;;34.88;24.50;;;30.10;40.90;;;;;;4945668;56;31056;-25
2022/07/26 09:46:57;;;;;;;28.90;21.83;;;30.10;40.50;;;;;;4616526;56;21071;-30
2022/07/26 09:51:58;;;;;;;36.10;24.23;;;30.20;40.60;;;;;;4564669;61;21573;-32
2022/07/26 09:56:59;;;;;;;32.85;24.80;;;30.20;40.50;;;;;;4564912;61;21103;-24
2022/07/26 10:02:00;;;;;;;34.60;23.73;;;30.30;39.90;;;;;;4613288;57;21131;-25
2022/07/26 10:07:02;;;;;;;31.17;21.10;;;30.30;40.10;;;;;;4565062;61;21023;-27
2022/07/26 10:12:07;;;;;;;31.23;22.98;;;30.30;40.00;;;;;;4565158;61;21089;-29
2022/07/26 10:17:48;;;;;;;29.17;21.95;;;30.40;40.00;;;;;;4612661;57;21571;-30
2022/07/26 10:22:49;;;;;;;27.40;19.25;;;30.40;40.40;;;;;;4612729;57;21082;-26
2022/07/26 10:27:55;;;;;;;23.90;17.17;;;30.40;40.20;;;;;;4616340;57;21122;-30
2022/07/26 10:33:01;;;;;;;33.53;23.60;;;30.50;40.70;;;;;;4591782;57;21022;-32
2022/07/26 10:38:07;;;;;;;42.88;27.42;;;30.50;40.10;;;;;;4618176;55;25653;-29
2022/07/26 10:43:11;;;;;;;30.88;23.25;;;30.60;40.70;;;;;;4781974;57;21146;-29
2022/07/26 10:48:17;;;;;;;32.38;21.87;;;30.60;41.00;;;;;;4670692;57;30290;-31
2022/07/26 10:53:26;;;;;;;24.10;18.58;;;30.60;41.30;;;;;;4636558;57;32104;-29
2022/07/26 10:58:27;;;;;;;23.48;18.02;;;30.60;41.50;;;;;;4589902;57;21476;-29
2022/07/26 11:03:42;;;;;;;27.08;17.55;;;30.50;44.90;;;;;;4618165;57;21075;-32
2022/07/26 11:08:45;;;;;;;23.65;17.00;;;30.40;46.40;;;;;;4623181;57;21081;-34
2022/07/26 11:13:46;;;;;;;27.92;18.55;;;30.30;46.90;;;;;;4638284;57;21102;-32
2022/07/26 11:18:47;;;;;;;22.87;17.60;;;30.30;46.90;;;;;;4594789;57;21066;-29
2022/07/26 11:23:50;;;;;;;22.25;17.65;;;30.20;47.30;;;;;;4617915;57;21117;-30
2022/07/26 11:29:02;;;;;;;23.27;18.08;;;30.20;46.90;;;;;;4589216;57;21500;-32
2022/07/26 11:34:04;;;;;;;27.37;18.27;;;30.20;47.10;;;;;;4575597;57;21070;-30
2022/07/26 11:39:12;;;;;;;21.98;17.60;;;30.20;47.20;;;;;;4592787;57;21042;-30
2022/07/26 11:44:18;;;;;;;19.75;17.12;;;30.10;47.10;;;;;;4564467;58;21149;-29
2022/07/26 11:49:21;;;;;;;19.58;14.13;;;30.10;47.10;;;;;;4587781;57;21021;-32
2022/07/26 11:54:24;;;;;;;16.95;14.98;;;30.20;42.50;;;;;;4564817;61;21159;-28
2022/07/26 11:59:27;;;;;;;20.75;16.42;;;30.30;41.10;;;;;;4607273;57;21094;-29
2022/07/26 12:04:31;;;;;;;20.77;17.60;;;30.40;40.50;;;;;;4564498;61;21045;-29
2022/07/26 12:10:33;;;;;;;21.20;17.40;;;30.50;40.30;;;;;;4564456;61;21575;-32
2022/07/26 12:15:49;;;;;;;23.25;18.08;;;30.60;40.40;;;;;;4623225;57;21177;-32
2022/07/26 12:21:04;;;;;;;20.20;16.52;;;30.60;40.00;;;;;;4612591;57;21066;-29
2022/07/26 12:26:26;;;;;;;19.02;16.37;;;30.70;39.80;;;;;;4608009;57;21157;-30
2022/07/26 12:31:31;;;;;;;21.15;18.87;;;30.70;39.60;;;;;;4674889;57;21006;-29
2022/07/26 12:36:33;;;;;;;93.78;85.38;;;30.70;39.60;;;;;;4696003;57;21062;-28
2022/07/26 12:41:37;;;;;;;182.52;163.85;;;30.80;40.60;;;;;;4569649;57;21093;-29
2022/07/26 12:46:38;;;;;;;74.85;67.50;;;30.70;39.80;;;;;;4765052;56;21022;-31
2022/07/26 12:51:39;;;;;;;110.78;99.82;;;30.70;39.40;;;;;;4607170;57;21088;-32
2022/07/26 12:56:40;;;;;;;163.48;147.73;;;30.80;39.50;;;;;;4839328;57;21548;-31
2022/07/26 13:01:41;;;;;;;70.12;63.00;;;30.80;39.40;;;;;;4631188;57;21581;-30
2022/07/26 13:06:42;;;;;;;35.08;31.50;;;30.80;39.40;;;;;;4564905;61;21097;-29
2022/07/26 13:11:42;;;;;;;26.42;23.17;;;30.80;39.00;;;;;;4581406;57;21089;-34
2022/07/26 13:16:43;;;;;;;26.58;23.33;;;30.90;39.00;;;;;;4561145;61;21178;-28
2022/07/26 13:21:44;;;;;;;25.25;22.75;;;30.80;39.10;;;;;;4567954;57;21022;-34
2022/07/26 13:26:45;;;;;;;25.88;23.12;;;30.70;39.40;;;;;;4635607;57;21025;-32
2022/07/26 13:31:46;;;;;;;26.40;23.60;;;30.60;39.70;;;;;;4561868;61;21118;-36
2022/07/26 13:36:47;;;;;;;25.88;23.25;;;30.50;40.00;;;;;;4679045;57;21114;-32
2022/07/26 13:41:49;;;;;;;26.98;23.33;;;30.40;40.30;;;;;;4654402;57;21574;-31
2022/07/26 13:46:49;;;;;;;24.15;21.75;;;30.40;40.60;;;;;;4996480;57;21161;-33
2022/07/26 13:51:56;;;;;;;24.52;22.05;;;30.40;40.80;;;;;;4564889;61;21081;-32
2022/07/26 13:56:58;;;;;;;24.92;22.30;;;30.30;41.10;;;;;;4738936;57;21525;-35
2022/07/26 14:01:59;;;;;;;25.05;22.33;;;30.30;41.30;;;;;;4563903;61;21038;-30
2022/07/26 14:07:00;;;;;;;24.67;22.08;;;30.30;41.50;;;;;;4659596;57;21021;-32
2022/07/26 14:12:01;;;;;;;23.27;20.75;;;30.20;41.50;;;;;;4565120;61;21033;-32
2022/07/26 14:17:02;;;;;;;24.33;21.85;;;30.20;41.90;;;;;;4701721;57;21603;-31
2022/07/26 14:22:03;;;;;;;24.30;21.83;;;30.20;41.90;;;;;;4759655;57;21586;-30
2022/07/26 14:27:04;;;;;;;23.98;21.40;;;30.20;42.10;;;;;;4705451;57;21559;-30
2022/07/26 14:32:05;;;;;;;23.75;21.45;;;30.10;42.20;;;;;;4607976;57;21121;-31
2022/07/26 14:37:06;;;;;;;24.02;21.58;;;30.10;42.40;;;;;;4709940;57;21142;-33
2022/07/26 14:42:07;;;;;;;22.73;20.42;;;30.10;42.60;;;;;;4608305;57;21560;-31
2022/07/26 14:47:09;;;;;;;23.15;20.88;;;30.10;42.60;;;;;;4565263;58;21090;-32
2022/07/26 14:52:10;;;;;;;23.15;20.85;;;30.10;42.80;;;;;;4571418;57;21523;-34
2022/07/26 14:57:11;;;;;;;23.00;20.70;;;30.10;42.90;;;;;;4639828;57;21025;-37
2022/07/26 15:02:12;;;;;;;22.70;20.40;;;30.10;43.00;;;;;;4626330;57;21508;-31
2022/07/26 15:07:12;;;;;;;21.98;19.77;;;30.00;43.00;;;;;;4674626;57;21082;-30
2022/07/26 15:12:13;;;;;;;21.70;19.50;;;30.00;43.20;;;;;;4793753;57;21643;-32
2022/07/26 15:17:14;;;;;;;22.95;20.75;;;30.00;43.20;;;;;;4608670;57;21157;-35
2022/07/26 15:22:15;;;;;;;21.98;19.77;;;30.00;44.00;;;;;;4785963;57;21085;-35
2022/07/26 15:27:16;;;;;;;23.42;21.02;;;30.00;43.40;;;;;;4664280;57;21030;-35
2022/07/26 15:32:19;;;;;;;22.05;19.92;;;30.00;43.50;;;;;;4783610;57;21041;-33
2022/07/26 15:37:20;;;;;;;22.80;20.55;;;30.00;43.60;;;;;;4564823;61;21057;-31
2022/07/26 15:42:21;;;;;;;22.50;20.30;;;30.00;43.80;;;;;;4733098;57;21050;-31
2022/07/26 15:47:22;;;;;;;21.25;19.17;;;30.00;43.90;;;;;;4686586;57;21017;-32
2022/07/26 15:52:23;;;;;;;22.65;20.45;;;30.00;44.10;;;;;;4626135;57;21391;-31
2022/07/26 15:57:23;;;;;;;22.45;20.25;;;30.00;44.10;;;;;;4686134;57;21571;-31
2022/07/26 16:02:24;;;;;;;21.62;19.40;;;30.00;44.30;;;;;;4723653;56;21101;-32
2022/07/26 16:07:25;;;;;;;22.33;20.08;;;30.00;44.30;;;;;;4639928;57;21094;-30
2022/07/26 16:12:27;;;;;;;21.45;19.35;;;30.00;44.50;;;;;;4564913;61;21054;-32
2022/07/26 16:17:28;;;;;;;21.37;19.25;;;29.90;44.60;;;;;;4617273;57;21109;-34
2022/07/26 16:22:30;;;;;;;21.55;19.48;;;30.00;44.60;;;;;;4660920;57;21114;-33
2022/07/26 16:27:31;;;;;;;20.98;18.85;;;29.90;44.70;;;;;;4580750;57;21561;-34
2022/07/26 16:32:32;;;;;;;21.67;19.50;;;29.90;44.90;;;;;;4622815;57;21546;-35
2022/07/26 16:37:33;;;;;;;20.27;18.30;;;29.90;45.00;;;;;;4894356;57;21089;-33
2022/07/26 16:42:34;;;;;;;21.08;19.08;;;29.90;44.90;;;;;;4697972;57;21093;-32
2022/07/26 16:47:35;;;;;;;21.83;19.73;;;29.90;45.20;;;;;;4723289;57;21097;-31
2022/07/26 16:52:36;;;;;;;20.50;18.50;;;29.90;45.30;;;;;;4680967;57;21041;-31
2022/07/26 16:57:38;;;;;;;21.42;19.23;;;29.90;45.40;;;;;;4590163;57;21101;-32
2022/07/26 17:02:38;;;;;;;20.62;18.67;;;29.90;45.40;;;;;;4650995;57;21126;-32
2022/07/26 17:07:40;;;;;;;20.90;18.80;;;29.90;45.60;;;;;;4564694;61;21042;-28
2022/07/26 17:12:41;;;;;;;21.00;19.00;;;29.90;45.80;;;;;;4564688;61;21479;-32
2022/07/26 17:17:41;;;;;;;21.20;19.20;;;29.90;45.90;;;;;;4596098;57;21029;-33
2022/07/26 17:22:42;;;;;;;20.40;18.50;;;29.90;45.90;;;;;;4633211;57;21102;-32
2022/07/26 17:27:43;;;;;;;21.45;19.25;;;29.80;45.60;;;;;;4609982;57;21054;-35
2022/07/26 17:32:44;;;;;;;20.77;18.75;;;29.90;46.10;;;;;;4653468;57;21041;-33
2022/07/26 17:37:45;;;;;;;20.02;18.10;;;29.90;47.00;;;;;;4585375;57;21102;-29
2022/07/26 17:42:46;;;;;;;20.83;18.62;;;29.80;46.50;;;;;;4724710;57;21087;-31
2022/07/26 17:47:47;;;;;;;21.02;19.02;;;29.80;46.60;;;;;;4619663;57;21094;-31
2022/07/26 17:52:49;;;;;;;20.70;18.80;;;29.80;47.70;;;;;;4603856;57;21578;-31
2022/07/26 17:57:50;;;;;;;19.70;17.83;;;29.80;46.80;;;;;;4653385;57;21085;-31
2022/07/26 18:02:51;;;;;;;20.02;17.92;;;29.80;47.30;;;;;;4564003;61;21125;-36
2022/07/26 18:07:52;;;;;;;21.37;18.98;;;29.80;47.10;;;;;;4564968;61;21580;-31
2022/07/26 18:12:53;;;;;;;19.50;17.67;;;29.80;47.40;;;;;;4834356;57;21103;-33
2022/07/26 18:17:54;;;;;;;19.55;17.65;;;29.80;47.50;;;;;;4623385;57;21102;-30
2022/07/26 18:22:55;;;;;;;20.12;18.05;;;29.80;47.60;;;;;;4637303;57;21004;-34
2022/07/26 18:27:56;;;;;;;19.55;17.70;;;29.80;47.90;;;;;;4597186;57;21141;-34
2022/07/26 18:32:59;;;;;;;20.02;17.87;;;29.80;48.00;;;;;;4635010;57;21075;-34
2022/07/26 18:38:00;;;;;;;19.35;17.48;;;29.80;48.00;;;;;;4687703;57;21066;-36
2022/07/26 18:43:01;;;;;;;19.95;18.05;;;29.80;48.00;;;;;;5012552;57;21179;-32
2022/07/26 18:48:02;;;;;;;19.00;17.20;;;29.80;48.20;;;;;;4641502;57;21041;-31
2022/07/26 18:53:03;;;;;;;19.48;17.58;;;29.80;47.90;;;;;;4606330;57;21013;-32
2022/07/26 18:58:04;;;;;;;19.17;17.40;;;29.80;47.90;;;;;;4608662;57;21053;-31
2022/07/26 19:03:04;;;;;;;19.48;17.67;;;29.80;48.00;;;;;;5012416;57;21520;-30
2022/07/26 19:08:05;;;;;;;19.45;17.65;;;29.80;48.00;;;;;;4613150;57;21078;-31
2022/07/26 19:13:09;;;;;;;18.92;17.02;;;29.80;48.10;;;;;;4563666;61;21026;-31
2022/07/26 19:18:12;;;;;;;19.37;17.48;;;29.80;48.30;;;;;;4564448;61;21130;-32
2022/07/26 19:23:13;;;;;;;20.00;17.87;;;29.80;48.20;;;;;;4564941;61;21854;-32
2022/07/26 19:28:14;;;;;;;19.67;17.70;;;29.70;48.20;;;;;;4564623;61;21050;-35
2022/07/26 19:33:15;;;;;;;19.55;17.62;;;29.70;47.90;;;;;;4564736;61;21030;-31
2022/07/26 19:38:16;;;;;;;18.60;16.85;;;29.80;48.50;;;;;;4711620;57;21495;-31
2022/07/26 19:43:17;;;;;;;18.80;16.90;;;29.80;48.50;;;;;;4708498;57;21034;-33
2022/07/26 19:48:18;;;;;;;17.85;16.05;;;29.80;48.60;;;;;;4692053;57;21042;-32
2022/07/26 19:53:19;;;;;;;18.75;16.95;;;29.80;48.60;;;;;;4582853;57;21496;-32
2022/07/26 19:58:19;;;;;;;19.42;17.33;;;29.80;48.70;;;;;;4615070;57;21054;-32
2022/07/26 20:03:20;;;;;;;18.23;16.45;;;29.80;48.80;;;;;;4971855;57;21561;-31
2022/07/26 20:08:21;;;;;;;18.50;16.75;;;29.80;48.50;;;;;;4563742;58;21030;-30
2022/07/26 20:13:22;;;;;;;19.05;17.15;;;29.80;49.00;;;;;;4641141;57;21033;-32
2022/07/26 20:18:23;;;;;;;18.15;16.35;;;29.80;48.90;;;;;;4569852;57;21539;-29
2022/07/26 20:23:26;;;;;;;18.42;16.62;;;29.80;49.10;;;;;;4607502;57;21495;-29
2022/07/26 20:28:27;;;;;;;18.73;17.00;;;29.80;49.10;;;;;;4842440;57;21555;-30
2022/07/26 20:33:28;;;;;;;18.87;17.08;;;29.70;49.10;;;;;;4713995;57;21093;-31
2022/07/26 20:38:29;;;;;;;19.90;17.52;;;29.80;49.20;;;;;;4616118;57;21098;-31
2022/07/26 20:43:30;;;;;;;18.37;16.52;;;29.80;49.40;;;;;;4734756;57;21029;-33
2022/07/26 20:48:30;;;;;;;18.12;16.35;;;29.70;49.40;;;;;;4793305;57;21100;-30
2022/07/26 20:53:31;;;;;;;19.25;17.35;;;29.70;49.40;;;;;;4628022;57;21026;-30
2022/07/26 20:58:32;;;;;;;17.37;15.75;;;29.80;49.50;;;;;;4708915;57;21050;-30
2022/07/26 21:03:33;;;;;;;17.80;16.12;;;29.70;49.50;;;;;;4565479;61;21181;-31
2022/07/26 21:08:34;;;;;;;18.25;16.45;;;29.70;49.60;;;;;;4565133;61;21511;-33
2022/07/26 21:13:36;;;;;;;17.48;15.77;;;29.70;49.50;;;;;;4565266;57;21559;-32
2022/07/26 21:18:37;;;;;;;17.58;15.88;;;29.70;49.70;;;;;;4753589;57;21560;-30
2022/07/26 21:23:38;;;;;;;17.12;15.32;;;29.80;49.80;;;;;;4614186;57;21026;-33
2022/07/26 21:28:39;;;;;;;17.40;15.70;;;29.70;49.70;;;;;;4840683;57;21085;-33
2022/07/26 21:33:40;;;;;;;16.30;14.70;;;29.70;49.80;;;;;;4609398;57;21074;-35
2022/07/26 21:38:41;;;;;;;15.52;14.02;;;29.70;49.80;;;;;;4718080;57;21568;-32
2022/07/26 21:43:42;;;;;;;16.55;14.87;;;29.70;49.90;;;;;;4835992;57;21038;-36
2022/07/26 21:48:43;;;;;;;16.55;15.05;;;29.70;49.90;;;;;;4759478;57;21053;-36
2022/07/26 21:53:44;;;;;;;16.08;14.57;;;29.70;50.10;;;;;;4624490;57;21053;-31
2022/07/26 21:58:45;;;;;;;17.17;15.48;;;29.70;50.10;;;;;;4603574;57;21070;-32
2022/07/26 22:03:46;;;;;;;16.65;14.95;;;29.70;50.20;;;;;;4705881;57;21021;-34
2022/07/26 22:08:47;;;;;;;16.15;14.55;;;29.70;50.20;;;;;;4951147;57;21166;-35
2022/07/26 22:13:48;;;;;;;16.40;14.70;;;29.70;50.30;;;;;;4870127;57;21078;-32
2022/07/26 22:18:49;;;;;;;15.98;14.38;;;29.70;50.20;;;;;;4564969;57;21078;-31
2022/07/26 22:23:50;;;;;;;15.70;14.18;;;29.70;50.20;;;;;;4747351;57;21097;-30
2022/07/26 22:28:51;;;;;;;16.20;14.70;;;29.70;50.20;;;;;;4666052;57;21468;-32
2022/07/26 22:33:51;;;;;;;15.60;14.10;;;29.70;50.40;;;;;;4940910;57;21158;-33
2022/07/26 22:38:52;;;;;;;16.58;14.87;;;29.70;50.40;;;;;;4894686;57;21042;-31
2022/07/26 22:43:53;;;;;;;15.07;13.68;;;29.70;50.20;;;;;;4854436;57;21156;-30
2022/07/26 22:48:54;;;;;;;16.50;14.98;;;29.70;50.40;;;;;;4593980;57;21507;-33
2022/07/26 22:53:54;;;;;;;15.23;13.73;;;29.70;50.30;;;;;;4831361;57;21045;-29
2022/07/26 22:58:55;;;;;;;15.75;14.20;;;29.70;50.40;;;;;;4785866;57;21154;-31
2022/07/26 23:03:56;;;;;;;14.80;13.40;;;29.70;50.60;;;;;;4740245;57;21110;-34
2022/07/26 23:08:57;;;;;;;15.27;13.82;;;29.70;50.50;;;;;;4708864;57;21018;-30
2022/07/26 23:13:58;;;;;;;14.73;13.40;;;29.70;50.60;;;;;;4718869;57;21105;-33
2022/07/26 23:18:59;;;;;;;14.98;13.55;;;29.70;50.50;;;;;;4585333;57;21066;-36
2022/07/26 23:24:00;;;;;;;15.27;13.73;;;29.70;51.10;;;;;;4614438;57;21041;-34
2022/07/26 23:29:01;;;;;;;15.00;13.60;;;29.70;50.40;;;;;;4608094;57;21544;-32
2022/07/26 23:34:02;;;;;;;15.57;14.18;;;29.70;50.50;;;;;;4582110;57;21556;-32
2022/07/26 23:39:03;;;;;;;14.07;12.77;;;29.70;50.70;;;;;;4625179;57;21427;-34
2022/07/26 23:44:04;;;;;;;14.55;13.15;;;29.70;50.60;;;;;;5011329;57;21046;-31
2022/07/26 23:49:05;;;;;;;14.65;13.13;;;29.70;50.60;;;;;;4584901;57;21046;-31
2022/07/26 23:54:06;;;;;;;14.60;13.25;;;29.70;50.60;;;;;;4565070;57;21027;-35
2022/07/26 23:59:06;;;;;;;14.95;13.55;;;29.70;50.60;;;;;;4613724;57;21056;-32
